Time;durP1;ratioP1;P1;durP2;ratioP2;P2;SDS_P1;SDS_P2;PMS_P1;PMS_P2;Temp;Humidity;BMP_temperature;BMP_pressure;BME280_temperature;BME280_humidity;BME280_pressure;Samples;Min_cycle;Max_cycle;Signal;HPM_P1;HPM_P2
2022/10/21 00:01:21;;;;;;;54.15;32.08;;;;;;;;;;5139071;27;20039;-71
2022/10/21 00:03:47;;;;;;;51.33;31.08;;;;;;;;;;5134226;27;20054;-71
2022/10/21 00:06:13;;;;;;;53.45;31.35;;;;;;;;;;5113847;27;20043;-73
2022/10/21 00:08:39;;;;;;;51.13;31.58;;;;;;;;;;5117887;27;20442;-71
2022/10/21 00:11:06;;;;;;;60.90;32.40;;;;;;;;;;5133088;27;20071;-71
2022/10/21 00:13:34;;;;;;;50.10;31.58;;;;;;;;;;5132529;27;20046;-71
2022/10/21 00:16:02;;;;;;;57.83;31.17;;;;;;;;;;5134104;27;20047;-71
2022/10/21 00:18:28;;;;;;;55.00;31.67;;;;;;;;;;5130372;27;20407;-71
2022/10/21 00:20:55;;;;;;;56.00;31.48;;;;;;;;;;5129231;27;20507;-71
2022/10/21 00:23:21;;;;;;;46.78;30.52;;;;;;;;;;5114749;27;20034;-71
2022/10/21 00:25:47;;;;;;;50.25;31.15;;;;;;;;;;5130345;27;20099;-70
2022/10/21 00:28:13;;;;;;;53.42;32.25;;;;;;;;;;5131311;27;20047;-71
2022/10/21 00:30:43;;;;;;;47.92;30.05;;;;;;;;;;5131855;27;20047;-71
2022/10/21 00:33:10;;;;;;;54.65;30.95;;;;;;;;;;5131475;27;20051;-71
2022/10/21 00:35:36;;;;;;;52.17;31.15;;;;;;;;;;5138693;27;20043;-71
2022/10/21 00:38:02;;;;;;;50.45;30.42;;;;;;;;;;5152720;27;20043;-71
2022/10/21 00:40:28;;;;;;;48.08;28.92;;;;;;;;;;5138160;27;20039;-71
2022/10/21 00:42:54;;;;;;;51.70;29.83;;;;;;;;;;5125968;27;20503;-71
2022/10/21 00:45:21;;;;;;;53.97;31.30;;;;;;;;;;5133969;27;20488;-71
2022/10/21 00:47:57;;;;;;;51.55;30.30;;;;;;;;;;5146585;27;20437;-71
2022/10/21 00:50:37;;;;;;;49.30;30.65;;;;;;;;;;5137121;27;20066;-71
2022/10/21 00:53:05;;;;;;;47.25;29.95;;;;;;;;;;5143535;27;20514;-71
2022/10/21 00:55:33;;;;;;;53.90;29.55;;;;;;;;;;5122792;27;20042;-71
2022/10/21 00:58:00;;;;;;;48.50;29.27;;;;;;;;;;5139858;27;20054;-71
2022/10/21 01:00:26;;;;;;;52.42;30.58;;;;;;;;;;5138706;27;20047;-71
2022/10/21 01:02:52;;;;;;;47.65;28.40;;;;;;;;;;5136097;27;20072;-71
2022/10/21 01:05:19;;;;;;;49.35;29.95;;;;;;;;;;5152262;27;20050;-71
2022/10/21 01:07:49;;;;;;;52.67;28.98;;;;;;;;;;5147423;27;20051;-71
2022/10/21 01:10:16;;;;;;;49.07;29.07;;;;;;;;;;5152655;27;20043;-71
2022/10/21 01:12:48;;;;;;;53.75;28.77;;;;;;;;;;5151477;27;20049;-71
2022/10/21 01:15:33;;;;;;;46.53;28.60;;;;;;;;;;5142010;27;20042;-71
2022/10/21 01:18:01;;;;;;;47.85;29.10;;;;;;;;;;5145362;27;20118;-71
2022/10/21 01:20:37;;;;;;;52.60;29.65;;;;;;;;;;5133489;27;20096;-71
2022/10/21 01:23:14;;;;;;;45.13;29.13;;;;;;;;;;5144244;27;20039;-71
2022/10/21 01:25:59;;;;;;;46.95;29.55;;;;;;;;;;5114918;28;20051;-71
2022/10/21 01:28:25;;;;;;;47.47;28.83;;;;;;;;;;5146256;27;20035;-71
2022/10/21 01:31:00;;;;;;;51.15;30.58;;;;;;;;;;5132064;27;20043;-70
2022/10/21 01:33:29;;;;;;;49.05;30.80;;;;;;;;;;5139589;27;20046;-71
2022/10/21 01:35:58;;;;;;;49.50;29.95;;;;;;;;;;5133043;27;20036;-71
2022/10/21 01:38:24;;;;;;;54.63;29.95;;;;;;;;;;5140625;27;20546;-71
2022/10/21 01:40:58;;;;;;;47.33;29.73;;;;;;;;;;5149838;27;20046;-71
2022/10/21 01:43:43;;;;;;;50.10;28.85;;;;;;;;;;5151869;27;20488;-71
2022/10/21 01:46:15;;;;;;;48.00;29.48;;;;;;;;;;5137372;27;20085;-71
2022/10/21 01:48:44;;;;;;;52.13;29.73;;;;;;;;;;5138539;27;20388;-71
2022/10/21 01:51:12;;;;;;;45.88;28.55;;;;;;;;;;5137349;27;20149;-71
2022/10/21 01:53:43;;;;;;;45.67;29.13;;;;;;;;;;5140806;27;20039;-71
2022/10/21 01:56:10;;;;;;;48.70;28.42;;;;;;;;;;5150269;27;20050;-71
2022/10/21 01:58:38;;;;;;;50.97;30.33;;;;;;;;;;5152872;27;20126;-71
2022/10/21 02:01:06;;;;;;;47.72;27.65;;;;;;;;;;5152495;27;20031;-71
2022/10/21 02:03:34;;;;;;;46.08;27.98;;;;;;;;;;5127604;27;20493;-71
2022/10/21 02:06:00;;;;;;;50.50;28.27;;;;;;;;;;5151734;27;20038;-72
2022/10/21 02:08:27;;;;;;;51.67;28.63;;;;;;;;;;5148150;27;20046;-70
2022/10/21 02:10:56;;;;;;;49.50;27.95;;;;;;;;;;5153220;27;20043;-71
2022/10/21 02:13:26;;;;;;;46.28;29.08;;;;;;;;;;5134989;27;20054;-70
2022/10/21 02:15:57;;;;;;;48.53;28.17;;;;;;;;;;5137375;27;20119;-71
2022/10/21 02:18:24;;;;;;;45.90;28.85;;;;;;;;;;5146683;27;20082;-71
2022/10/21 02:20:52;;;;;;;48.78;29.75;;;;;;;;;;5143330;27;20063;-71
2022/10/21 02:23:20;;;;;;;46.10;27.98;;;;;;;;;;5142887;27;20038;-71
2022/10/21 02:25:48;;;;;;;45.47;27.88;;;;;;;;;;5156085;27;20430;-70
2022/10/21 02:28:14;;;;;;;46.80;28.38;;;;;;;;;;5152058;27;20035;-70
2022/10/21 02:30:54;;;;;;;46.85;28.02;;;;;;;;;;5141171;27;20057;-70
2022/10/21 02:33:26;;;;;;;51.35;29.15;;;;;;;;;;5144135;27;20058;-71
2022/10/21 02:36:00;;;;;;;54.13;28.60;;;;;;;;;;5115214;27;20047;-70
2022/10/21 02:38:26;;;;;;;52.08;28.38;;;;;;;;;;5141559;27;20126;-70
2022/10/21 02:41:03;;;;;;;45.72;27.95;;;;;;;;;;5134585;27;20085;-71
2022/10/21 02:43:38;;;;;;;56.90;30.70;;;;;;;;;;5143337;27;20488;-70
2022/10/21 02:46:08;;;;;;;59.47;30.02;;;;;;;;;;5155901;27;20201;-69
2022/10/21 02:48:35;;;;;;;48.45;29.20;;;;;;;;;;5145865;27;20038;-70
2022/10/21 02:51:02;;;;;;;53.67;28.92;;;;;;;;;;5117632;27;20386;-70
2022/10/21 02:53:29;;;;;;;54.42;30.05;;;;;;;;;;5138263;27;20492;-70
2022/10/21 02:55:55;;;;;;;48.55;28.60;;;;;;;;;;5142380;27;20122;-70
2022/10/21 02:58:21;;;;;;;55.50;28.92;;;;;;;;;;5150572;27;20381;-70
2022/10/21 03:00:47;;;;;;;56.78;29.30;;;;;;;;;;5134582;27;20031;-70
2022/10/21 03:03:13;;;;;;;60.03;30.63;;;;;;;;;;5137009;27;20039;-70
2022/10/21 03:05:39;;;;;;;56.80;30.58;;;;;;;;;;5148368;27;20431;-70
2022/10/21 03:08:05;;;;;;;54.63;30.08;;;;;;;;;;5147616;27;20126;-70
2022/10/21 03:10:31;;;;;;;56.00;30.27;;;;;;;;;;5135024;27;20046;-70
2022/10/21 03:12:57;;;;;;;59.10;29.88;;;;;;;;;;5149962;27;20083;-70
2022/10/21 03:15:23;;;;;;;55.25;29.42;;;;;;;;;;5133393;27;21365;-70
2022/10/21 03:17:49;;;;;;;61.55;30.45;;;;;;;;;;5140260;27;20035;-71
2022/10/21 03:20:16;;;;;;;61.83;31.48;;;;;;;;;;5143601;27;20476;-70
2022/10/21 03:22:43;;;;;;;63.70;31.00;;;;;;;;;;5150892;27;20092;-71
2022/10/21 03:25:09;;;;;;;61.17;31.13;;;;;;;;;;5135374;27;20047;-70
2022/10/21 03:27:35;;;;;;;58.03;30.80;;;;;;;;;;5142726;27;20039;-71
2022/10/21 03:30:01;;;;;;;56.10;29.20;;;;;;;;;;5138209;27;20047;-71
2022/10/21 03:32:27;;;;;;;57.10;29.88;;;;;;;;;;5141620;27;20047;-70
2022/10/21 03:34:53;;;;;;;53.33;28.52;;;;;;;;;;5138593;27;20423;-70
2022/10/21 03:37:19;;;;;;;53.08;29.45;;;;;;;;;;5148807;27;20050;-70
2022/10/21 03:39:45;;;;;;;56.25;29.75;;;;;;;;;;5129038;27;20507;-71
2022/10/21 03:42:11;;;;;;;66.10;30.55;;;;;;;;;;5134629;27;20035;-71
2022/10/21 03:44:37;;;;;;;54.65;29.92;;;;;;;;;;5133715;27;20046;-70
2022/10/21 03:47:03;;;;;;;61.47;30.55;;;;;;;;;;5134669;27;20034;-70
2022/10/21 03:49:29;;;;;;;62.38;30.40;;;;;;;;;;5125534;27;20047;-71
2022/10/21 03:51:55;;;;;;;63.03;30.38;;;;;;;;;;5123598;27;20421;-70
2022/10/21 03:54:21;;;;;;;50.45;28.23;;;;;;;;;;5142131;27;20056;-71
2022/10/21 03:56:47;;;;;;;69.43;32.78;;;;;;;;;;5134112;27;20071;-71
2022/10/21 03:59:13;;;;;;;61.78;31.05;;;;;;;;;;5137546;27;20125;-71
2022/10/21 04:01:40;;;;;;;58.53;30.05;;;;;;;;;;5127931;27;20050;-71
2022/10/21 04:04:06;;;;;;;65.05;30.17;;;;;;;;;;5135652;27;20452;-71
2022/10/21 04:06:32;;;;;;;56.90;28.80;;;;;;;;;;5145782;27;20122;-71
2022/10/21 04:08:58;;;;;;;52.50;28.70;;;;;;;;;;5139470;27;20083;-71
2022/10/21 04:11:24;;;;;;;50.47;28.27;;;;;;;;;;5149173;27;20689;-71
2022/10/21 04:13:50;;;;;;;65.28;30.17;;;;;;;;;;5099445;27;20047;-71
2022/10/21 04:16:17;;;;;;;59.60;29.38;;;;;;;;;;5138938;27;20035;-71
2022/10/21 04:18:43;;;;;;;58.33;30.05;;;;;;;;;;5146118;27;20051;-71
2022/10/21 04:21:09;;;;;;;60.13;29.52;;;;;;;;;;5151590;27;20127;-70
2022/10/21 04:23:35;;;;;;;67.00;29.67;;;;;;;;;;5145015;27;20039;-71
2022/10/21 04:26:01;;;;;;;67.10;30.65;;;;;;;;;;5116906;27;20039;-70
2022/10/21 04:28:27;;;;;;;66.30;29.83;;;;;;;;;;5136621;27;20502;-70
2022/10/21 04:30:53;;;;;;;63.13;29.85;;;;;;;;;;5149316;27;20035;-71
2022/10/21 04:33:19;;;;;;;56.33;28.20;;;;;;;;;;5140882;27;20118;-71
2022/10/21 04:35:45;;;;;;;54.53;27.98;;;;;;;;;;5149682;27;20129;-71
2022/10/21 04:38:11;;;;;;;61.38;29.02;;;;;;;;;;5149338;27;20046;-70
2022/10/21 04:40:38;;;;;;;57.75;27.98;;;;;;;;;;5151713;27;20045;-71
2022/10/21 04:43:04;;;;;;;62.58;29.30;;;;;;;;;;5136326;27;20492;-71
2022/10/21 04:45:30;;;;;;;65.20;29.27;;;;;;;;;;5131602;27;20114;-71
2022/10/21 04:47:56;;;;;;;49.25;27.30;;;;;;;;;;5140766;27;20500;-71
2022/10/21 04:50:22;;;;;;;55.95;28.02;;;;;;;;;;5153239;27;20125;-70
2022/10/21 04:52:48;;;;;;;58.78;28.88;;;;;;;;;;5150113;27;20051;-71
2022/10/21 04:55:14;;;;;;;55.22;28.35;;;;;;;;;;5141296;27;20484;-71
2022/10/21 04:57:41;;;;;;;56.10;27.98;;;;;;;;;;5139113;27;20046;-71
2022/10/21 05:00:08;;;;;;;52.92;27.33;;;;;;;;;;5134254;27;20074;-70
2022/10/21 05:02:34;;;;;;;58.40;27.90;;;;;;;;;;5147409;27;20042;-70
2022/10/21 05:05:00;;;;;;;59.83;28.05;;;;;;;;;;5142258;27;20085;-71
2022/10/21 05:07:26;;;;;;;46.80;26.70;;;;;;;;;;5149843;27;20038;-71
2022/10/21 05:09:52;;;;;;;53.53;28.65;;;;;;;;;;5152957;27;20046;-71
2022/10/21 05:12:18;;;;;;;44.13;25.23;;;;;;;;;;5134515;27;20423;-71
2022/10/21 05:14:44;;;;;;;57.33;26.63;;;;;;;;;;5133315;27;20047;-71
2022/10/21 05:17:10;;;;;;;56.58;28.83;;;;;;;;;;5148015;27;20045;-70
2022/10/21 05:19:36;;;;;;;59.17;28.08;;;;;;;;;;5137541;27;20541;-70
2022/10/21 05:22:02;;;;;;;66.95;29.73;;;;;;;;;;5144015;27;20046;-70
2022/10/21 05:24:28;;;;;;;64.50;30.13;;;;;;;;;;5140187;27;20396;-71
2022/10/21 05:26:54;;;;;;;57.78;29.05;;;;;;;;;;5128406;27;20043;-71
2022/10/21 05:29:20;;;;;;;60.13;29.23;;;;;;;;;;5153529;27;20057;-71
2022/10/21 05:31:46;;;;;;;59.22;29.17;;;;;;;;;;5117587;28;20035;-71
2022/10/21 05:34:12;;;;;;;71.88;30.95;;;;;;;;;;5132737;27;20043;-71
2022/10/21 05:36:38;;;;;;;66.45;29.27;;;;;;;;;;5132868;27;20104;-70
2022/10/21 05:39:07;;;;;;;66.13;29.35;;;;;;;;;;5132643;27;20027;-71
2022/10/21 05:41:33;;;;;;;68.28;30.40;;;;;;;;;;5133358;27;20047;-71
2022/10/21 05:43:59;;;;;;;64.25;28.55;;;;;;;;;;5138159;27;20054;-71
2022/10/21 05:46:25;;;;;;;63.15;29.95;;;;;;;;;;5139274;27;20043;-71
2022/10/21 05:48:51;;;;;;;64.95;30.20;;;;;;;;;;5140219;27;20047;-71
2022/10/21 05:51:24;;;;;;;64.82;30.30;;;;;;;;;;5139106;27;20039;-71
2022/10/21 05:53:50;;;;;;;60.92;29.92;;;;;;;;;;5133732;27;20046;-71
2022/10/21 05:56:16;;;;;;;68.72;30.65;;;;;;;;;;5143180;27;20035;-71
2022/10/21 05:58:42;;;;;;;67.13;30.23;;;;;;;;;;5139665;27;20063;-72
2022/10/21 06:01:08;;;;;;;66.72;28.88;;;;;;;;;;5144422;27;20130;-71
2022/10/21 06:03:34;;;;;;;56.65;28.70;;;;;;;;;;5134908;27;20035;-71
2022/10/21 06:06:01;;;;;;;62.00;29.73;;;;;;;;;;5110980;27;20035;-71
2022/10/21 06:08:27;;;;;;;54.55;27.98;;;;;;;;;;5144070;27;20047;-71
2022/10/21 06:11:04;;;;;;;63.00;29.00;;;;;;;;;;5150136;27;20081;-71
2022/10/21 06:13:30;;;;;;;69.28;30.85;;;;;;;;;;5146611;27;20050;-71
2022/10/21 06:15:56;;;;;;;59.15;28.63;;;;;;;;;;5137809;27;20500;-71
2022/10/21 06:18:22;;;;;;;63.88;29.25;;;;;;;;;;5134996;27;20043;-71
2022/10/21 06:20:48;;;;;;;68.97;31.35;;;;;;;;;;5130851;27;20487;-71
2022/10/21 06:23:15;;;;;;;61.95;30.33;;;;;;;;;;5144287;27;20044;-71
2022/10/21 06:25:41;;;;;;;56.33;28.52;;;;;;;;;;5141528;27;20064;-71
2022/10/21 06:28:07;;;;;;;61.15;30.25;;;;;;;;;;5131111;27;20401;-71
2022/10/21 06:30:33;;;;;;;63.83;28.48;;;;;;;;;;5144214;27;20047;-71
2022/10/21 06:32:59;;;;;;;69.63;31.25;;;;;;;;;;5144032;27;20047;-71
2022/10/21 06:35:25;;;;;;;63.67;29.65;;;;;;;;;;5136134;27;20072;-71
2022/10/21 06:37:51;;;;;;;60.20;28.40;;;;;;;;;;5136865;27;20054;-71
2022/10/21 06:40:17;;;;;;;72.68;30.40;;;;;;;;;;5136066;27;20039;-71
2022/10/21 06:42:43;;;;;;;91.88;31.63;;;;;;;;;;5147256;27;20088;-71
2022/10/21 06:45:10;;;;;;;91.35;35.53;;;;;;;;;;5136949;27;20039;-71
2022/10/21 06:47:36;;;;;;;94.05;39.25;;;;;;;;;;5148896;27;20493;-71
2022/10/21 06:50:02;;;;;;;78.93;32.15;;;;;;;;;;5156629;27;20555;-71
2022/10/21 06:52:31;;;;;;;70.22;31.05;;;;;;;;;;5156668;27;20074;-71
2022/10/21 06:54:57;;;;;;;73.05;32.40;;;;;;;;;;5140939;27;20054;-71
2022/10/21 06:57:23;;;;;;;76.35;33.45;;;;;;;;;;5135549;27;20058;-71
2022/10/21 06:59:49;;;;;;;80.50;38.00;;;;;;;;;;5135789;27;20126;-71
2022/10/21 07:02:15;;;;;;;73.55;34.13;;;;;;;;;;5126861;27;20493;-72
2022/10/21 07:04:44;;;;;;;64.72;31.83;;;;;;;;;;5126951;27;20046;-71
2022/10/21 07:07:10;;;;;;;56.03;29.40;;;;;;;;;;5136602;27;20536;-71
2022/10/21 07:09:36;;;;;;;49.25;28.10;;;;;;;;;;5136346;27;20035;-71
2022/10/21 07:12:02;;;;;;;51.22;28.33;;;;;;;;;;5135778;27;20404;-71
2022/10/21 07:14:28;;;;;;;40.20;25.92;;;;;;;;;;5136165;27;20039;-72
2022/10/21 07:16:54;;;;;;;35.80;23.52;;;;;;;;;;5149832;27;20030;-70
2022/10/21 07:19:20;;;;;;;37.47;23.52;;;;;;;;;;5135386;27;20058;-73
2022/10/21 07:21:46;;;;;;;33.40;22.35;;;;;;;;;;5145462;27;20047;-71
2022/10/21 07:24:12;;;;;;;31.88;21.33;;;;;;;;;;5135335;27;20046;-76
2022/10/21 07:26:38;;;;;;;31.15;20.45;;;;;;;;;;5115179;27;20047;-75
2022/10/21 07:29:05;;;;;;;32.03;21.35;;;;;;;;;;5135417;27;20043;-79
2022/10/21 07:31:33;;;;;;;32.95;21.05;;;;;;;;;;5139654;27;20081;-77
2022/10/21 07:34:00;;;;;;;33.17;21.92;;;;;;;;;;5147592;27;20066;-70
2022/10/21 07:36:28;;;;;;;29.85;20.58;;;;;;;;;;5155526;27;20050;-71
2022/10/21 07:38:55;;;;;;;30.08;21.30;;;;;;;;;;5155304;27;20082;-71
2022/10/21 07:41:22;;;;;;;33.10;22.30;;;;;;;;;;5133629;27;20105;-76
2022/10/21 07:43:49;;;;;;;34.13;21.52;;;;;;;;;;5134086;27;20150;-74
2022/10/21 07:46:15;;;;;;;35.22;22.20;;;;;;;;;;5137951;27;20476;-71
2022/10/21 07:48:41;;;;;;;39.92;24.27;;;;;;;;;;5140542;27;20488;-71
2022/10/21 07:51:08;;;;;;;39.28;26.65;;;;;;;;;;5154936;27;20047;-71
2022/10/21 07:53:35;;;;;;;33.35;23.33;;;;;;;;;;5143984;27;20042;-71
2022/10/21 07:56:02;;;;;;;31.30;22.83;;;;;;;;;;5122052;27;20038;-72
2022/10/21 07:58:28;;;;;;;30.00;22.92;;;;;;;;;;5136836;27;20051;-75
2022/10/21 08:00:56;;;;;;;38.88;24.75;;;;;;;;;;5133990;27;20542;-71
2022/10/21 08:03:22;;;;;;;31.02;22.45;;;;;;;;;;5134209;27;20039;-71
2022/10/21 08:05:48;;;;;;;30.77;22.27;;;;;;;;;;5136749;27;20045;-70
2022/10/21 08:08:15;;;;;;;40.90;26.42;;;;;;;;;;5151892;27;20055;-70
2022/10/21 08:10:41;;;;;;;33.40;23.10;;;;;;;;;;5143191;27;20039;-70
2022/10/21 08:13:07;;;;;;;34.78;25.25;;;;;;;;;;5154830;27;20071;-71
2022/10/21 08:15:33;;;;;;;38.90;27.10;;;;;;;;;;5149241;27;20031;-71
2022/10/21 08:17:59;;;;;;;35.67;26.80;;;;;;;;;;5141129;27;20047;-71
2022/10/21 08:20:25;;;;;;;34.60;22.10;;;;;;;;;;5141300;27;20411;-70
2022/10/21 08:22:51;;;;;;;32.65;21.80;;;;;;;;;;5152733;27;20126;-71
2022/10/21 08:25:17;;;;;;;28.88;21.55;;;;;;;;;;5147634;27;20043;-70
2022/10/21 08:27:43;;;;;;;38.40;27.25;;;;;;;;;;5140008;27;20043;-71
2022/10/21 08:30:09;;;;;;;37.45;26.55;;;;;;;;;;5145395;27;20073;-69
2022/10/21 08:32:35;;;;;;;50.28;36.83;;;;;;;;;;5139783;27;21014;-70
2022/10/21 08:35:01;;;;;;;40.08;26.60;;;;;;;;;;5133802;27;20034;-70
2022/10/21 08:37:27;;;;;;;35.55;23.90;;;;;;;;;;5148871;27;20413;-70
2022/10/21 08:39:53;;;;;;;35.78;23.30;;;;;;;;;;5148822;27;20396;-70
2022/10/21 08:42:19;;;;;;;32.42;22.50;;;;;;;;;;5134959;27;20412;-70
2022/10/21 08:44:58;;;;;;;29.02;20.67;;;;;;;;;;5114094;27;20051;-70
2022/10/21 08:47:29;;;;;;;24.27;19.20;;;;;;;;;;5132605;27;20382;-71
2022/10/21 08:49:58;;;;;;;28.10;19.65;;;;;;;;;;5136364;27;20034;-70
2022/10/21 08:52:27;;;;;;;34.17;22.83;;;;;;;;;;5146817;27;20065;-71
2022/10/21 08:54:59;;;;;;;33.20;22.40;;;;;;;;;;5133030;27;20043;-71
2022/10/21 08:57:25;;;;;;;27.38;18.75;;;;;;;;;;5140476;27;20051;-71
2022/10/21 08:59:51;;;;;;;25.48;18.88;;;;;;;;;;5140501;27;20039;-69
2022/10/21 09:02:35;;;;;;;25.77;18.50;;;;;;;;;;5143461;27;20042;-69
2022/10/21 09:05:07;;;;;;;24.92;17.65;;;;;;;;;;5141949;27;20095;-68
2022/10/21 09:07:43;;;;;;;22.25;17.73;;;;;;;;;;5133332;27;20039;-68
2022/10/21 09:10:16;;;;;;;34.95;21.33;;;;;;;;;;5133807;27;20046;-69
2022/10/21 09:12:57;;;;;;;27.23;18.63;;;;;;;;;;5144140;27;20043;-68
2022/10/21 09:15:36;;;;;;;28.92;19.15;;;;;;;;;;5136127;27;20322;-69
2022/10/21 09:18:20;;;;;;;29.88;20.95;;;;;;;;;;5143913;27;20489;-69
2022/10/21 09:21:04;;;;;;;32.75;20.98;;;;;;;;;;5132758;27;20046;-68
2022/10/21 09:23:39;;;;;;;29.52;20.02;;;;;;;;;;5136148;27;20496;-69
2022/10/21 09:26:16;;;;;;;27.20;20.08;;;;;;;;;;5119610;27;20039;-69
2022/10/21 09:28:43;;;;;;;85.43;46.88;;;;;;;;;;5143299;27;20701;-68
2022/10/21 09:31:14;;;;;;;33.00;19.52;;;;;;;;;;5135145;27;20078;-68
2022/10/21 09:33:40;;;;;;;;;;;;;;;;;;5132651;27;20047;-68
2022/10/21 09:36:17;;;;;;;26.25;18.52;;;;;;;;;;5132480;27;19962;-67
2022/10/21 09:38:50;;;;;;;24.08;16.13;;;;;;;;;;5150583;27;20460;-68
2022/10/21 09:41:17;;;;;;;22.13;17.65;;;;;;;;;;5147782;27;20122;-69
2022/10/21 09:43:44;;;;;;;23.17;16.40;;;;;;;;;;5134077;27;20043;-68
2022/10/21 09:46:13;;;;;;;19.60;15.45;;;;;;;;;;5139570;27;20043;-68
2022/10/21 09:48:47;;;;;;;31.48;20.13;;;;;;;;;;5121450;27;20039;-70
2022/10/21 09:51:15;;;;;;;26.05;17.60;;;;;;;;;;5133601;27;20401;-70
2022/10/21 09:53:50;;;;;;;30.65;21.45;;;;;;;;;;5145627;27;20364;-68
2022/10/21 09:56:27;;;;;;;29.50;20.95;;;;;;;;;;5142948;27;20492;-67
2022/10/21 09:59:08;;;;;;;22.48;18.48;;;;;;;;;;5119035;28;20035;-67
2022/10/21 10:01:34;;;;;;;;;;;;;;;;;;5144547;27;20050;-70
2022/10/21 10:04:09;;;;;;;33.80;24.67;;;;;;;;;;5142463;27;19919;-67
2022/10/21 10:06:36;;;;;;;21.17;13.77;;;;;;;;;;5133342;27;20043;-67
2022/10/21 10:09:08;;;;;;;24.27;15.50;;;;;;;;;;5142850;27;20067;-68
2022/10/21 10:11:47;;;;;;;25.55;16.27;;;;;;;;;;5136207;27;20050;-66
2022/10/21 10:14:37;;;;;;;31.08;23.88;;;;;;;;;;5116912;27;20074;-68
2022/10/21 10:17:22;;;;;;;46.70;40.53;;;;;;;;;;5126234;27;20104;-68
2022/10/21 10:20:03;;;;;;;40.85;33.30;;;;;;;;;;5137555;27;20124;-69
2022/10/21 10:22:48;;;;;;;53.60;48.15;;;;;;;;;;5146692;27;20442;-68
2022/10/21 10:25:15;;;;;;;22.02;14.65;;;;;;;;;;5135538;27;20071;-74
2022/10/21 10:27:47;;;;;;;69.28;54.90;;;;;;;;;;5147024;27;20053;-70
2022/10/21 10:30:14;;;;;;;25.50;20.17;;;;;;;;;;5153570;27;20050;-69
2022/10/21 10:32:41;;;;;;;34.65;26.48;;;;;;;;;;5140505;27;20043;-69
2022/10/21 10:35:08;;;;;;;25.65;17.23;;;;;;;;;;5117738;27;20047;-70
2022/10/21 10:37:36;;;;;;;20.73;13.88;;;;;;;;;;5136060;27;20095;-70
2022/10/21 10:40:06;;;;;;;39.10;34.70;;;;;;;;;;5135324;27;20489;-70
2022/10/21 10:42:36;;;;;;;22.80;14.00;;;;;;;;;;5136033;27;20047;-70
2022/10/21 10:45:05;;;;;;;22.20;16.42;;;;;;;;;;5136199;27;20388;-70
2022/10/21 10:47:37;;;;;;;24.25;20.02;;;;;;;;;;5138831;27;20036;-70
2022/10/21 10:50:03;;;;;;;19.10;14.90;;;;;;;;;;5136308;27;20043;-70
2022/10/21 10:52:29;;;;;;;19.80;15.10;;;;;;;;;;5142654;27;20050;-70
2022/10/21 10:55:13;;;;;;;28.77;20.75;;;;;;;;;;5137849;27;20054;-70
2022/10/21 10:57:41;;;;;;;26.20;18.42;;;;;;;;;;5121557;27;20042;-69
2022/10/21 11:00:22;;;;;;;26.02;20.05;;;;;;;;;;5134792;27;20051;-69
2022/10/21 11:02:59;;;;;;;28.55;22.38;;;;;;;;;;5145430;27;20540;-70
2022/10/21 11:05:35;;;;;;;23.08;17.30;;;;;;;;;;5123752;27;20045;-69
2022/10/21 11:08:06;;;;;;;17.10;14.07;;;;;;;;;;5143347;27;20147;-70
2022/10/21 11:10:41;;;;;;;22.95;15.90;;;;;;;;;;5121920;27;20043;-71
2022/10/21 11:13:27;;;;;;;40.67;36.38;;;;;;;;;;5145883;27;20053;-72
2022/10/21 11:15:55;;;;;;;36.25;29.63;;;;;;;;;;5140999;27;20046;-71
2022/10/21 11:18:42;;;;;;;18.50;16.20;;;;;;;;;;5136628;27;20077;-69
2022/10/21 11:21:23;;;;;;;22.17;17.23;;;;;;;;;;5133731;27;20100;-68
2022/10/21 11:23:49;;;;;;;28.27;24.33;;;;;;;;;;5134321;27;20062;-72
2022/10/21 11:26:29;;;;;;;22.33;14.43;;;;;;;;;;5148567;27;20416;-68
2022/10/21 11:29:16;;;;;;;19.80;16.00;;;;;;;;;;5136859;27;20049;-69
2022/10/21 11:31:58;;;;;;;21.00;14.77;;;;;;;;;;5135777;27;20149;-69
2022/10/21 11:34:27;;;;;;;20.05;15.45;;;;;;;;;;5141136;27;20043;-70
2022/10/21 11:37:03;;;;;;;19.77;13.27;;;;;;;;;;5133216;27;20092;-70
2022/10/21 11:39:42;;;;;;;27.88;15.52;;;;;;;;;;5139995;27;20051;-69
2022/10/21 11:42:23;;;;;;;20.35;13.63;;;;;;;;;;5143298;27;20047;-70
2022/10/21 11:44:49;;;;;;;;;;;;;;;;;;5145498;27;20103;-71
2022/10/21 11:47:30;;;;;;;29.90;22.10;;;;;;;;;;5144315;27;20385;-70
2022/10/21 11:50:03;;;;;;;24.63;17.95;;;;;;;;;;5134492;27;20700;-70
2022/10/21 11:52:47;;;;;;;22.40;19.52;;;;;;;;;;5143020;27;20045;-70
2022/10/21 11:55:14;;;;;;;18.50;13.25;;;;;;;;;;5134432;27;20485;-70
2022/10/21 11:57:46;;;;;;;25.70;15.68;;;;;;;;;;5143803;27;20039;-70
2022/10/21 12:00:17;;;;;;;22.10;14.00;;;;;;;;;;5147584;27;20503;-70
2022/10/21 12:02:58;;;;;;;23.23;15.73;;;;;;;;;;5136974;27;20668;-70
2022/10/21 12:05:47;;;;;;;18.45;11.75;;;;;;;;;;5134511;27;20092;-68
2022/10/21 12:08:23;;;;;;;18.83;13.80;;;;;;;;;;5131515;27;20054;-69
2022/10/21 12:10:49;;;;;;;17.40;12.63;;;;;;;;;;5133221;27;20498;-68
2022/10/21 12:13:22;;;;;;;15.90;11.35;;;;;;;;;;5138746;27;20049;-68
2022/10/21 12:15:53;;;;;;;19.55;12.90;;;;;;;;;;5138241;27;20043;-72
2022/10/21 12:18:21;;;;;;;18.17;12.23;;;;;;;;;;5121055;27;20142;-68
2022/10/21 12:20:49;;;;;;;18.42;11.43;;;;;;;;;;5113008;27;20058;-69
2022/10/21 12:23:20;;;;;;;17.67;10.18;;;;;;;;;;5115326;27;20036;-69
2022/10/21 12:25:46;;;;;;;17.30;11.35;;;;;;;;;;5111229;27;20469;-68
2022/10/21 12:28:15;;;;;;;14.60;10.75;;;;;;;;;;5121569;27;20638;-68
2022/10/21 12:31:03;;;;;;;20.85;14.20;;;;;;;;;;5120598;27;20047;-69
2022/10/21 12:33:32;;;;;;;14.35;10.02;;;;;;;;;;5115737;27;20051;-68
2022/10/21 12:36:14;;;;;;;18.80;9.15;;;;;;;;;;5114520;27;20055;-67
2022/10/21 12:38:54;;;;;;;24.33;10.63;;;;;;;;;;5120114;27;20047;-69
2022/10/21 12:41:23;;;;;;;18.02;8.98;;;;;;;;;;5112579;27;20048;-69
2022/10/21 12:43:58;;;;;;;18.40;9.38;;;;;;;;;;5115422;27;20069;-70
2022/10/21 12:46:26;;;;;;;18.95;10.55;;;;;;;;;;5116220;27;20054;-68
2022/10/21 12:48:53;;;;;;;20.65;10.20;;;;;;;;;;5111842;27;20493;-70
2022/10/21 12:51:21;;;;;;;15.75;9.70;;;;;;;;;;5119899;27;20119;-71
2022/10/21 12:53:49;;;;;;;21.70;10.48;;;;;;;;;;5123188;27;20461;-69
2022/10/21 12:56:30;;;;;;;18.20;8.98;;;;;;;;;;5113610;27;20047;-69
2022/10/21 12:58:58;;;;;;;22.77;9.85;;;;;;;;;;5123227;27;20050;-68
2022/10/21 13:01:33;;;;;;;15.68;8.98;;;;;;;;;;5117638;27;20048;-69
2022/10/21 13:03:59;;;;;;;17.05;9.27;;;;;;;;;;5111733;28;20086;-69
2022/10/21 13:06:51;;;;;;;15.80;9.30;;;;;;;;;;5110597;27;20492;-70
2022/10/21 13:09:36;;;;;;;20.63;9.07;;;;;;;;;;5067191;28;20525;-72
2022/10/21 13:12:04;;;;;;;19.42;9.38;;;;;;;;;;5067329;28;20513;-68
2022/10/21 13:14:38;;;;;;;12.68;8.85;;;;;;;;;;5058866;28;20061;-72
2022/10/21 13:17:20;;;;;;;15.15;8.70;;;;;;;;;;5060056;28;20094;-68
2022/10/21 13:19:52;;;;;;;22.25;8.88;;;;;;;;;;5049759;28;20057;-68
2022/10/21 13:22:38;;;;;;;16.40;9.05;;;;;;;;;;5038204;28;20123;-69
2022/10/21 13:25:09;;;;;;;15.02;8.95;;;;;;;;;;5055927;28;20052;-68
2022/10/21 13:27:36;;;;;;;16.50;8.65;;;;;;;;;;5042165;28;22329;-69
2022/10/21 13:30:06;;;;;;;18.55;8.70;;;;;;;;;;5068599;28;20514;-69
2022/10/21 13:32:35;;;;;;;23.58;8.93;;;;;;;;;;5055731;28;20422;-70
2022/10/21 13:35:01;;;;;;;18.13;8.45;;;;;;;;;;5066232;28;20037;-69
2022/10/21 13:37:30;;;;;;;17.65;8.73;;;;;;;;;;5066526;28;20045;-69
2022/10/21 13:39:58;;;;;;;24.80;8.30;;;;;;;;;;5049002;28;20723;-70
2022/10/21 13:42:26;;;;;;;13.98;8.07;;;;;;;;;;5063442;28;20067;-70
2022/10/21 13:44:56;;;;;;;18.10;8.18;;;;;;;;;;5056553;28;20040;-70
2022/10/21 13:47:29;;;;;;;17.60;8.23;;;;;;;;;;5095718;28;20526;-70
2022/10/21 13:50:10;;;;;;;15.13;7.85;;;;;;;;;;5094741;28;20048;-70
2022/10/21 13:52:36;;;;;;;;;;;;;;;;;;5099799;28;20043;-70
2022/10/21 13:55:04;;;;;;;20.60;7.57;;;;;;;;;;5097743;28;19966;-70
2022/10/21 13:57:31;;;;;;;17.27;7.78;;;;;;;;;;5106052;28;20048;-69
2022/10/21 14:00:08;;;;;;;11.65;7.57;;;;;;;;;;5108210;28;20044;-69
2022/10/21 14:02:34;;;;;;;14.52;7.18;;;;;;;;;;5100338;28;20043;-70
2022/10/21 14:05:01;;;;;;;12.32;7.00;;;;;;;;;;5096780;28;20043;-69
2022/10/21 14:07:27;;;;;;;17.52;8.55;;;;;;;;;;5100652;28;20394;-70
2022/10/21 14:09:58;;;;;;;16.10;8.05;;;;;;;;;;5099450;28;20040;-70
2022/10/21 14:12:35;;;;;;;15.53;7.27;;;;;;;;;;5097696;28;20075;-70
2022/10/21 14:15:03;;;;;;;13.30;6.78;;;;;;;;;;5109341;28;20293;-70
2022/10/21 14:17:29;;;;;;;14.63;6.88;;;;;;;;;;5100359;28;20132;-70
2022/10/21 14:20:01;;;;;;;13.52;7.50;;;;;;;;;;5138600;27;20054;-69
2022/10/21 14:22:30;;;;;;;14.32;7.20;;;;;;;;;;5137663;27;20039;-69
2022/10/21 14:25:00;;;;;;;11.68;6.78;;;;;;;;;;5137640;27;20127;-70
2022/10/21 14:27:30;;;;;;;13.53;7.37;;;;;;;;;;5135902;27;20039;-69
2022/10/21 14:29:57;;;;;;;12.37;6.70;;;;;;;;;;5136640;27;20045;-69
2022/10/21 14:32:25;;;;;;;13.95;7.10;;;;;;;;;;5145490;27;20304;-69
2022/10/21 14:35:02;;;;;;;12.68;6.05;;;;;;;;;;5139736;27;20054;-69